createdAt,value
2018-10-12T00:00:19.657Z,67.13
2018-10-12T00:01:19.650Z,67.23
2018-10-12T00:02:19.651Z,67.13
2018-10-12T00:03:19.631Z,67.10
2018-10-12T00:04:19.657Z,66.50
2018-10-12T00:05:19.602Z,66.39
2018-10-12T00:06:19.618Z,66.30
2018-10-12T00:07:19.583Z,66.09
2018-10-12T00:08:19.584Z,66.19
2018-10-12T00:09:19.562Z,66.30
2018-10-12T00:10:19.585Z,66.70
2018-10-12T00:11:19.539Z,65.89
2018-10-12T00:12:19.535Z,65.99
2018-10-12T00:13:19.515Z,65.79
2018-10-12T00:14:19.521Z,65.96
2018-10-12T00:15:19.497Z,66.09
2018-10-12T00:16:19.539Z,65.79
2018-10-12T00:17:19.470Z,65.96
2018-10-12T00:18:19.461Z,66.16
2018-10-12T00:19:19.452Z,65.79
2018-10-12T00:20:19.440Z,66.19
2018-10-12T00:21:19.424Z,65.89
2018-10-12T00:22:19.468Z,65.89
2018-10-12T00:23:19.401Z,65.99
2018-10-12T00:24:19.395Z,65.86
2018-10-12T00:25:19.383Z,65.99
2018-10-12T00:26:19.385Z,65.89
2018-10-12T00:27:19.360Z,66.09
2018-10-12T00:28:19.423Z,66.09
2018-10-12T00:29:19.337Z,65.99
2018-10-12T00:30:19.329Z,66.09
2018-10-12T00:31:19.318Z,66.09
2018-10-12T00:32:19.323Z,66.19
2018-10-12T00:33:19.293Z,67.10
2018-10-12T00:34:19.328Z,66.50
2018-10-12T00:35:19.271Z,66.83
2018-10-12T00:36:19.265Z,67.23
2018-10-12T00:37:19.250Z,67.33
2018-10-12T00:38:19.249Z,67.13
2018-10-12T00:39:19.254Z,67.23
2018-10-12T00:40:19.256Z,67.23
2018-10-12T00:41:19.202Z,67.23
2018-10-12T00:42:19.194Z,67.54
2018-10-12T00:43:19.187Z,67.63
2018-10-12T00:44:19.187Z,67.74
2018-10-12T00:45:19.162Z,68.04
2018-10-12T00:46:19.191Z,68.07
2018-10-12T00:47:19.138Z,68.27
2018-10-12T00:48:19.137Z,68.10
2018-10-12T00:49:19.120Z,68.51
2018-10-12T00:50:19.114Z,69.01
2018-10-12T00:51:19.100Z,69.42
2018-10-12T00:52:19.117Z,70.06
2018-10-12T00:53:19.074Z,69.95
2018-10-12T00:54:19.059Z,70.49
2018-10-12T00:55:19.052Z,70.59
2018-10-12T00:56:19.054Z,70.49
2018-10-12T00:57:19.027Z,72.04
2018-10-12T00:58:19.051Z,71.94
2018-10-12T00:59:19.008Z,71.94
2018-10-12T01:00:18.991Z,71.23
2018-10-12T01:01:18.980Z,72.28
2018-10-12T01:02:18.979Z,72.34
2018-10-12T01:03:18.958Z,72.34
2018-10-12T01:04:18.994Z,71.03
2018-10-12T01:05:18.937Z,71.91
2018-10-12T01:06:18.923Z,70.29
2018-10-12T01:07:18.913Z,70.86
2018-10-12T01:08:18.912Z,69.85
2018-10-12T01:09:18.891Z,69.42
2018-10-12T01:10:18.918Z,69.31
2018-10-12T01:11:18.876Z,68.37
2018-10-12T01:12:18.929Z,68.61
2018-10-12T01:13:18.847Z,68.27
2018-10-12T01:14:18.845Z,68.48
2018-10-12T01:15:18.827Z,68.57
2018-10-12T01:16:18.853Z,68.17
2018-10-12T01:17:18.804Z,67.97
2018-10-12T01:18:18.793Z,68.07
2018-10-12T01:19:18.780Z,68.14
2018-10-12T01:20:18.781Z,68.14
2018-10-12T01:21:18.768Z,68.07
2018-10-12T01:22:18.789Z,68.07
2018-10-12T01:23:18.737Z,68.07
2018-10-12T01:24:18.724Z,68.17
2018-10-12T01:25:18.712Z,68.17
2018-10-12T01:26:18.701Z,68.88
2018-10-12T01:27:18.705Z,68.77
2018-10-12T01:28:18.755Z,68.57
2018-10-12T01:29:18.683Z,69.21
2018-10-12T01:30:18.661Z,69.21
2018-10-12T01:31:18.649Z,69.31
2018-10-12T01:32:18.637Z,69.31
2018-10-12T01:33:18.623Z,69.52
2018-10-12T01:34:18.663Z,69.92
2018-10-12T01:35:18.648Z,70.12
2018-10-12T01:36:18.590Z,69.95
2018-10-12T01:37:18.581Z,70.66
2018-10-12T01:38:18.580Z,70.56
2018-10-12T01:39:18.563Z,70.49
2018-10-12T01:40:18.583Z,70.46
2018-10-12T01:41:18.551Z,70.36
2018-10-12T01:42:18.522Z,70.66
2018-10-12T01:43:18.515Z,70.26
2018-10-12T01:44:18.503Z,70.96
2018-10-12T01:45:18.498Z,70.86
2018-10-12T01:46:18.519Z,71.91
2018-10-12T01:47:18.473Z,71.97
2018-10-12T01:48:18.460Z,71.10
2018-10-12T01:49:18.448Z,71.70
2018-10-12T01:50:18.434Z,71.50
2018-10-12T01:51:18.423Z,71.40
2018-10-12T01:52:18.447Z,71.80
2018-10-12T01:53:18.416Z,72.00
2018-10-12T01:54:18.391Z,71.40
2018-10-12T01:55:18.392Z,71.67
2018-10-12T01:56:18.368Z,70.56
2018-10-12T01:57:18.358Z,70.46
2018-10-12T01:58:18.381Z,70.62
2018-10-12T01:59:18.348Z,69.92
2018-10-12T02:00:18.340Z,69.92
2018-10-12T02:01:18.311Z,70.02
2018-10-12T02:02:18.304Z,69.92
2018-10-12T02:03:18.294Z,70.73
2018-10-12T02:04:18.330Z,70.42
2018-10-12T02:05:18.271Z,70.56
2018-10-12T02:06:18.269Z,71.06
2018-10-12T02:07:18.246Z,70.22
2018-10-12T02:08:18.237Z,70.32
2018-10-12T02:09:18.223Z,70.32
2018-10-12T02:10:18.376Z,70.32
2018-10-12T02:11:18.211Z,70.42
2018-10-12T02:12:18.215Z,70.12
2018-10-12T02:13:18.183Z,70.42
2018-10-12T02:14:18.173Z,70.62
2018-10-12T02:15:18.162Z,71.03
2018-10-12T02:16:18.302Z,70.73
2018-10-12T02:17:18.139Z,70.93
2018-10-12T02:18:18.142Z,70.42
2018-10-12T02:19:18.114Z,70.42
2018-10-12T02:20:18.103Z,70.73
2018-10-12T02:21:18.094Z,70.73
2018-10-12T02:22:18.120Z,70.93
2018-10-12T02:23:18.077Z,71.53
2018-10-12T02:24:18.072Z,71.44
2018-10-12T02:25:18.051Z,71.53
2018-10-12T02:26:18.035Z,71.23
2018-10-12T02:27:18.034Z,71.03
2018-10-12T02:28:18.064Z,70.93
2018-10-12T02:29:18.004Z,71.64
2018-10-12T02:30:18.013Z,71.33
2018-10-12T02:31:17.982Z,72.14
2018-10-12T02:32:17.971Z,70.93
2018-10-12T02:33:17.959Z,71.94
2018-10-12T02:34:17.985Z,72.07
2018-10-12T02:35:17.936Z,71.44
2018-10-12T02:36:17.935Z,71.77
2018-10-12T02:37:17.915Z,71.47
2018-10-12T02:38:17.904Z,71.57
2018-10-12T02:39:17.891Z,71.57
2018-10-12T02:40:17.918Z,71.26
2018-10-12T02:41:17.869Z,71.47
2018-10-12T02:42:17.869Z,70.96
2018-10-12T02:43:17.848Z,71.47
2018-10-12T02:44:17.836Z,71.23
2018-10-12T02:45:17.826Z,71.77
2018-10-12T02:46:17.854Z,72.17
2018-10-12T02:47:17.804Z,72.17
2018-10-12T02:48:17.800Z,72.24
2018-10-12T02:49:17.797Z,71.84
2018-10-12T02:50:17.775Z,72.17
2018-10-12T02:51:17.765Z,72.48
2018-10-12T02:52:17.795Z,72.17
2018-10-12T02:53:17.738Z,72.68
2018-10-12T02:54:17.728Z,72.07
2018-10-12T02:55:17.725Z,72.68
2018-10-12T02:56:17.717Z,72.58
2018-10-12T02:57:17.693Z,72.48
2018-10-12T02:58:17.730Z,72.64
2018-10-12T02:59:17.670Z,72.48
2018-10-12T03:00:17.657Z,72.68
2018-10-12T03:01:17.651Z,72.38
2018-10-12T03:02:17.653Z,72.48
2018-10-12T03:03:17.624Z,72.58
2018-10-12T03:04:17.661Z,72.78
2018-10-12T03:05:17.608Z,72.98
2018-10-12T03:06:17.596Z,72.88
2018-10-12T03:07:17.581Z,73.02
2018-10-12T03:08:17.592Z,73.02
2018-10-12T03:09:17.563Z,73.32
2018-10-12T03:10:17.596Z,73.52
2018-10-12T03:11:17.542Z,73.52
2018-10-12T03:12:17.529Z,73.75
2018-10-12T03:13:17.526Z,74.06
2018-10-12T03:14:17.529Z,74.16
2018-10-12T03:15:17.491Z,74.46
2018-10-12T03:16:17.519Z,74.66
2018-10-12T03:17:17.473Z,75.10
2018-10-12T03:18:17.459Z,75.01
2018-10-12T03:19:17.450Z,75.10
2018-10-12T03:20:17.444Z,74.80
2018-10-12T03:21:17.490Z,75.01
2018-10-12T03:22:17.453Z,75.10
2018-10-12T03:23:17.404Z,74.97
2018-10-12T03:24:17.392Z,75.10
2018-10-12T03:25:17.386Z,75.01
2018-10-12T03:26:17.370Z,75.01
2018-10-12T03:27:17.367Z,75.41
2018-10-12T03:28:17.383Z,75.04
2018-10-12T03:29:17.341Z,75.45
2018-10-12T03:30:17.329Z,75.45
2018-10-12T03:31:17.314Z,75.34
2018-10-12T03:32:17.303Z,75.55
2018-10-12T03:33:17.301Z,75.95
2018-10-12T03:34:17.320Z,75.34
2018-10-12T03:35:17.271Z,75.85
2018-10-12T03:36:17.263Z,76.19
2018-10-12T03:37:17.415Z,76.29
2018-10-12T03:38:17.236Z,76.79
2018-10-12T03:39:17.242Z,76.50
2018-10-12T03:40:17.249Z,76.29
2018-10-12T03:41:17.214Z,77.03
2018-10-12T03:42:17.196Z,77.34
2018-10-12T03:43:17.185Z,77.03
2018-10-12T03:44:17.173Z,77.54
2018-10-12T03:45:17.169Z,77.75
2018-10-12T03:46:17.191Z,77.14
2018-10-12T03:47:17.213Z,77.03
2018-10-12T03:48:17.149Z,77.44
2018-10-12T03:49:17.127Z,77.34
2018-10-12T03:50:17.134Z,77.24
2018-10-12T03:51:17.096Z,77.64
2018-10-12T03:52:17.133Z,77.44
2018-10-12T03:53:17.077Z,77.34
2018-10-12T03:54:17.063Z,77.44
2018-10-12T03:55:17.065Z,77.44
2018-10-12T03:56:17.039Z,77.54
2018-10-12T03:57:17.029Z,76.70
2018-10-12T03:58:17.056Z,76.09
2018-10-12T03:59:17.006Z,76.19
2018-10-12T04:00:17.005Z,76.15
2018-10-12T04:01:16.980Z,75.85
2018-10-12T04:02:16.971Z,75.85
2018-10-12T04:03:16.974Z,75.34
2018-10-12T04:04:16.998Z,75.45
2018-10-12T04:05:16.938Z,75.65
2018-10-12T04:06:16.927Z,75.45
2018-10-12T04:07:16.921Z,75.34
2018-10-12T04:08:16.908Z,75.24
2018-10-12T04:09:16.901Z,75.10
2018-10-12T04:10:16.921Z,74.60
2018-10-12T04:11:16.871Z,74.94
2018-10-12T04:12:16.865Z,74.94
2018-10-12T04:13:16.855Z,74.60
2018-10-12T04:14:16.838Z,74.54
2018-10-12T04:15:16.832Z,74.63
2018-10-12T04:16:16.858Z,74.50
2018-10-12T04:17:16.809Z,74.43
2018-10-12T04:18:16.793Z,74.40
2018-10-12T04:19:16.823Z,73.99
2018-10-12T04:20:16.771Z,73.79
2018-10-12T04:21:16.766Z,73.69
2018-10-12T04:22:16.796Z,73.59
2018-10-12T04:23:16.736Z,73.59
2018-10-12T04:24:16.726Z,73.75
2018-10-12T04:25:16.715Z,73.86
2018-10-12T04:26:16.706Z,73.46
2018-10-12T04:27:16.747Z,73.59
2018-10-12T04:28:16.729Z,73.55
2018-10-12T04:29:16.679Z,73.55
2018-10-12T04:30:16.715Z,73.25
2018-10-12T04:31:16.652Z,73.39
2018-10-12T04:32:16.640Z,73.86
2018-10-12T04:33:16.632Z,73.75
2018-10-12T04:34:16.662Z,73.99
2018-10-12T04:35:16.646Z,73.79
2018-10-12T04:36:16.595Z,73.79
2018-10-12T04:37:16.612Z,74.06
2018-10-12T04:38:16.592Z,74.30
2018-10-12T04:39:16.561Z,74.30
2018-10-12T04:40:16.608Z,74.30
2018-10-12T04:41:16.542Z,74.70
2018-10-12T04:42:16.539Z,74.40
2018-10-12T04:43:16.541Z,74.60
2018-10-12T04:44:16.516Z,74.74
2018-10-12T04:45:16.494Z,75.14
2018-10-12T04:46:16.582Z,75.14
2018-10-12T04:47:16.626Z,75.45
2018-10-12T04:48:16.481Z,75.34
2018-10-12T04:49:16.468Z,75.45
2018-10-12T04:50:16.448Z,75.55
2018-10-12T04:51:16.439Z,75.45
2018-10-12T04:52:16.501Z,75.45
2018-10-12T04:53:16.411Z,75.65
2018-10-12T04:54:16.407Z,75.45
2018-10-12T04:55:16.440Z,75.75
2018-10-12T04:56:16.386Z,75.55
2018-10-12T04:57:16.372Z,75.45
2018-10-12T04:58:16.401Z,75.75
2018-10-12T04:59:16.348Z,75.95
2018-10-12T05:00:16.341Z,76.35
2018-10-12T05:01:16.394Z,75.99
2018-10-12T05:02:16.312Z,76.50
2018-10-12T05:03:16.297Z,76.70
2018-10-12T05:04:16.340Z,76.70
2018-10-12T05:05:16.277Z,76.59
2018-10-12T05:06:16.284Z,76.50
2018-10-12T05:07:16.257Z,76.53
2018-10-12T05:08:16.254Z,77.34
2018-10-12T05:09:16.236Z,77.24
2018-10-12T05:10:16.255Z,77.14
2018-10-12T05:11:16.212Z,77.03
2018-10-12T05:12:16.198Z,77.75
2018-10-12T05:13:16.191Z,77.54
2018-10-12T05:14:16.176Z,77.17
2018-10-12T05:15:16.184Z,77.64
2018-10-12T05:16:16.193Z,78.49
2018-10-12T05:17:16.142Z,78.39
2018-10-12T05:18:16.132Z,78.39
2018-10-12T05:19:16.126Z,78.39
2018-10-12T05:20:16.109Z,79.00
2018-10-12T05:21:16.112Z,78.79
2018-10-12T05:22:16.140Z,78.08
2018-10-12T05:23:16.082Z,78.28
2018-10-12T05:24:16.066Z,78.79
2018-10-12T05:25:16.057Z,78.35
2018-10-12T05:26:16.042Z,78.19
2018-10-12T05:27:16.049Z,77.84
2018-10-12T05:28:16.065Z,77.75
2018-10-12T05:29:16.009Z,77.14
2018-10-12T05:30:16.032Z,78.15
2018-10-12T05:31:15.984Z,77.68
2018-10-12T05:32:15.979Z,78.08
2018-10-12T05:33:15.962Z,78.28
2018-10-12T05:34:16.013Z,78.69
2018-10-12T05:35:15.939Z,78.83
2018-10-12T05:36:15.939Z,78.93
2018-10-12T05:37:15.919Z,79.34
2018-10-12T05:38:15.905Z,78.83
2018-10-12T05:39:15.903Z,78.93
2018-10-12T05:40:15.925Z,79.13
2018-10-12T05:41:15.888Z,79.34
2018-10-12T05:42:15.862Z,79.44
2018-10-12T05:43:15.906Z,79.64
2018-10-12T05:44:15.842Z,79.74
2018-10-12T05:45:15.828Z,80.35
2018-10-12T05:46:15.856Z,80.25
2018-10-12T05:47:15.826Z,80.15
2018-10-12T05:48:15.800Z,80.05
2018-10-12T05:49:15.785Z,80.05
2018-10-12T05:50:15.782Z,80.45
2018-10-12T05:51:15.764Z,80.65
2018-10-12T05:52:15.790Z,80.59
2018-10-12T05:53:15.798Z,81.40
2018-10-12T05:54:15.726Z,81.60
2018-10-12T05:55:15.719Z,82.28
2018-10-12T05:56:15.707Z,81.20
2018-10-12T05:57:15.699Z,81.06
2018-10-12T05:58:15.728Z,81.91
2018-10-12T05:59:15.675Z,81.20
2018-10-12T06:00:15.664Z,81.57
2018-10-12T06:01:15.736Z,81.57
2018-10-12T06:02:15.653Z,81.67
2018-10-12T06:03:15.631Z,80.35
2018-10-12T06:04:15.667Z,80.45
2018-10-12T06:05:15.610Z,80.05
2018-10-12T06:06:15.590Z,80.52
2018-10-12T06:07:15.590Z,79.60
2018-10-12T06:08:15.582Z,79.40
2018-10-12T06:09:15.556Z,78.96
2018-10-12T06:10:15.603Z,78.66
2018-10-12T06:11:15.605Z,78.45
2018-10-12T06:12:15.535Z,78.01
2018-10-12T06:13:15.517Z,77.30
2018-10-12T06:14:15.520Z,76.90
2018-10-12T06:15:15.494Z,77.47
2018-10-12T06:16:15.527Z,77.17
2018-10-12T06:17:15.475Z,77.20
2018-10-12T06:18:15.461Z,77.37
2018-10-12T06:19:15.456Z,77.17
2018-10-12T06:20:15.437Z,76.86
2018-10-12T06:21:15.439Z,77.06
2018-10-12T06:22:15.466Z,77.47
2018-10-12T06:23:15.401Z,76.66
2018-10-12T06:24:15.392Z,76.46
2018-10-12T06:25:15.381Z,76.56
2018-10-12T06:26:15.373Z,76.35
2018-10-12T06:27:15.381Z,76.86
2018-10-12T06:28:15.383Z,77.26
2018-10-12T06:29:15.400Z,77.47
2018-10-12T06:30:15.363Z,77.17
2018-10-12T06:31:15.353Z,77.37
2018-10-12T06:32:15.340Z,77.67
2018-10-12T06:33:15.465Z,77.77
2018-10-12T06:34:15.312Z,78.17
2018-10-12T06:35:15.273Z,78.31
2018-10-12T06:36:15.261Z,78.21
2018-10-12T06:37:15.261Z,78.21
2018-10-12T06:38:15.236Z,78.31
2018-10-12T06:39:15.231Z,78.21
2018-10-12T06:40:15.251Z,78.42
2018-10-12T06:41:15.334Z,78.08
2018-10-12T06:42:15.195Z,78.28
2018-10-12T06:43:15.201Z,77.47
2018-10-12T06:44:15.169Z,77.77
2018-10-12T06:45:15.159Z,78.38
2018-10-12T06:46:15.376Z,78.17
2018-10-12T06:47:15.143Z,78.28
2018-10-12T06:48:15.123Z,78.17
2018-10-12T06:49:15.115Z,78.24
2018-10-12T06:50:15.104Z,78.24
2018-10-12T06:51:15.090Z,77.19
2018-10-12T06:52:15.173Z,77.09
2018-10-12T06:53:15.069Z,76.89
2018-10-12T06:54:15.064Z,76.95
2018-10-12T06:55:15.048Z,75.84
2018-10-12T06:56:15.065Z,76.45
2018-10-12T06:57:15.024Z,76.65
2018-10-12T06:58:15.068Z,76.31
2018-10-12T06:59:15.005Z,76.01
2018-10-12T07:00:14.996Z,76.72
2018-10-12T07:01:14.984Z,75.47
2018-10-12T07:02:14.968Z,75.98
2018-10-12T07:03:14.954Z,75.37
2018-10-12T07:04:14.983Z,75.37
2018-10-12T07:05:14.959Z,75.23
2018-10-12T07:06:14.929Z,75.34
2018-10-12T07:07:14.914Z,75.23
2018-10-12T07:08:14.900Z,75.13
2018-10-12T07:09:14.889Z,74.43
2018-10-12T07:10:14.913Z,74.43
2018-10-12T07:11:14.891Z,74.63
2018-10-12T07:12:14.875Z,74.43
2018-10-12T07:13:14.847Z,74.32
2018-10-12T07:14:14.839Z,74.29
2018-10-12T07:15:14.832Z,74.69
2018-10-12T07:16:14.867Z,74.39
2018-10-12T07:17:14.821Z,74.29
2018-10-12T07:18:14.794Z,73.88
2018-10-12T07:19:14.781Z,74.79
2018-10-12T07:20:14.776Z,74.90
2018-10-12T07:21:14.759Z,74.39
2018-10-12T07:22:14.797Z,74.19
2018-10-12T07:23:14.755Z,74.08
2018-10-12T07:24:14.724Z,74.29
2018-10-12T07:25:14.712Z,74.08
2018-10-12T07:26:14.699Z,73.75
2018-10-12T07:27:14.688Z,73.95
2018-10-12T07:28:14.812Z,73.85
2018-10-12T07:29:14.674Z,73.55
2018-10-12T07:30:14.676Z,73.75
2018-10-12T07:31:14.648Z,73.75
2018-10-12T07:32:14.638Z,73.55
2018-10-12T07:33:14.628Z,73.25
2018-10-12T07:34:14.701Z,73.35
2018-10-12T07:35:14.597Z,72.85
2018-10-12T07:36:14.614Z,73.11
2018-10-12T07:37:14.722Z,73.01
2018-10-12T07:38:14.867Z,73.01
2018-10-12T07:39:14.850Z,72.81
2018-10-12T07:40:14.579Z,72.37
2018-10-12T07:41:14.559Z,72.57
2018-10-12T07:42:14.543Z,72.57
2018-10-12T07:43:14.520Z,72.34
2018-10-12T07:44:22.051Z,72.27
2018-10-12T07:45:24.050Z,72.74
2018-10-12T07:46:23.051Z,72.24
2018-10-12T07:47:22.079Z,71.97
2018-10-12T07:48:14.489Z,71.83
2018-10-12T07:49:14.440Z,71.03
2018-10-12T07:50:14.427Z,71.03
2018-10-12T07:51:14.458Z,70.70
2018-10-12T07:52:14.405Z,70.79
2018-10-12T07:53:14.450Z,71.63
2018-10-12T07:54:14.385Z,70.83
2018-10-12T07:55:14.387Z,71.30
2018-10-12T07:56:14.364Z,71.43
2018-10-12T07:57:14.390Z,70.70
2018-10-12T07:58:14.361Z,71.30
2018-10-12T07:59:14.337Z,70.50
2018-10-12T08:00:14.429Z,70.59
2018-10-12T08:01:14.307Z,70.09
2018-10-12T08:02:14.297Z,70.16
2018-10-12T08:03:14.329Z,70.36
2018-10-12T08:04:14.271Z,70.66
2018-10-12T08:05:14.276Z,69.96
2018-10-12T08:06:14.283Z,70.46
2018-10-12T08:07:14.254Z,69.25
2018-10-12T08:08:14.231Z,69.12
2018-10-12T08:09:14.263Z,68.72
2018-10-12T08:10:14.208Z,69.12
2018-10-12T08:11:14.200Z,67.91
2018-10-12T08:12:14.200Z,68.08
2018-10-12T08:13:14.177Z,67.88
2018-10-12T08:14:14.212Z,67.88
2018-10-12T08:15:14.196Z,67.88
2018-10-12T08:16:14.144Z,67.55
2018-10-12T08:17:14.131Z,67.05
2018-10-12T08:18:14.124Z,66.95
2018-10-12T08:19:14.107Z,66.31
2018-10-12T08:20:14.173Z,65.81
2018-10-12T08:21:14.123Z,66.55
2018-10-12T08:22:14.075Z,66.35
2018-10-12T08:23:14.061Z,66.85
2018-10-12T08:24:14.056Z,67.05
2018-10-12T08:25:14.041Z,66.55
2018-10-12T08:26:14.039Z,67.05
2018-10-12T08:27:14.068Z,66.71
2018-10-12T08:28:14.010Z,66.82
2018-10-12T08:29:13.996Z,66.82
2018-10-12T08:30:13.995Z,66.21
2018-10-12T08:31:13.979Z,65.78
2018-10-12T08:32:13.975Z,65.68
2018-10-12T08:33:14.002Z,65.48
2018-10-12T08:34:13.940Z,64.68
2018-10-12T08:35:13.933Z,64.18
2018-10-12T08:36:13.973Z,64.34
2018-10-12T08:37:13.992Z,63.54
2018-10-12T08:38:13.901Z,64.75
2018-10-12T08:39:13.930Z,63.84
2018-10-12T08:40:13.880Z,63.64
2018-10-12T08:41:13.870Z,64.01
2018-10-12T08:42:13.858Z,63.61
2018-10-12T08:43:13.854Z,63.42
2018-10-12T08:44:13.873Z,63.31
2018-10-12T08:45:13.863Z,63.48
2018-10-12T08:46:13.811Z,63.08
2018-10-12T08:47:13.841Z,63.58
2018-10-12T08:48:13.791Z,62.78
2018-10-12T08:49:13.779Z,63.08
2018-10-12T08:50:13.798Z,63.39
2018-10-12T08:51:13.795Z,63.35
2018-10-12T08:52:13.750Z,61.55
2018-10-12T08:53:13.739Z,63.06
2018-10-12T08:54:13.731Z,62.55
2018-10-12T08:55:13.716Z,62.52
2018-10-12T08:56:13.726Z,61.92
2018-10-12T08:57:13.731Z,61.45
2018-10-12T08:58:13.681Z,61.45
2018-10-12T08:59:13.669Z,62.32
2018-10-12T09:00:13.659Z,61.85
2018-10-12T09:01:13.651Z,62.25
2018-10-12T09:02:13.657Z,61.55
2018-10-12T09:03:13.685Z,62.35
2018-10-12T09:04:13.624Z,61.85
2018-10-12T09:05:13.604Z,62.05
2018-10-12T09:06:13.593Z,62.15
2018-10-12T09:07:13.581Z,62.35
2018-10-12T09:08:13.581Z,61.45
2018-10-12T09:09:13.615Z,62.62
2018-10-12T09:10:13.583Z,62.02
2018-10-12T09:11:13.534Z,61.62
2018-10-12T09:12:13.526Z,61.82
2018-10-12T09:13:13.518Z,61.82
2018-10-12T09:14:13.497Z,61.79
2018-10-12T09:15:13.554Z,61.59
2018-10-12T09:16:13.499Z,61.89
2018-10-12T09:17:13.484Z,62.19
2018-10-12T09:18:13.464Z,60.99
2018-10-12T09:19:13.445Z,60.96
2018-10-12T09:20:13.478Z,60.77
2018-10-12T09:21:13.456Z,61.07
2018-10-12T09:22:13.412Z,60.27
2018-10-12T09:23:13.427Z,60.46
2018-10-12T09:24:13.391Z,60.44
2018-10-12T09:25:13.373Z,59.27
2018-10-12T09:26:13.362Z,58.76
2018-10-12T09:27:13.473Z,58.54
2018-10-12T09:28:13.346Z,57.97
2018-10-12T09:29:13.336Z,58.44
2018-10-12T09:30:13.400Z,57.93
2018-10-12T09:31:13.306Z,56.74
2018-10-12T09:32:13.296Z,57.04
2018-10-12T09:33:13.319Z,56.64
2018-10-12T09:34:13.282Z,56.41
2018-10-12T09:35:13.263Z,56.41
2018-10-12T09:36:13.274Z,56.31
2018-10-12T09:37:13.280Z,56.81
2018-10-12T09:38:13.229Z,56.51
2018-10-12T09:39:13.264Z,55.49
2018-10-12T09:40:13.202Z,55.19
2018-10-12T09:41:13.195Z,55.29
2018-10-12T09:42:13.203Z,55.58
2018-10-12T09:43:13.184Z,55.69
2018-10-12T09:44:13.174Z,54.59
2018-10-12T09:45:13.188Z,54.99
2018-10-12T09:46:13.138Z,54.79
2018-10-12T09:47:13.125Z,54.99
2018-10-12T09:48:13.122Z,54.86
2018-10-12T09:49:13.103Z,54.89
2018-10-12T09:50:13.133Z,54.99
2018-10-12T09:51:13.132Z,54.99
2018-10-12T09:52:13.074Z,54.66
2018-10-12T09:53:13.060Z,54.69
2018-10-12T09:54:13.062Z,55.39
2018-10-12T09:55:13.038Z,55.86
2018-10-12T09:56:13.032Z,54.99
2018-10-12T09:57:13.052Z,55.39
2018-10-12T09:58:13.006Z,55.58
2018-10-12T09:59:12.996Z,55.99
2018-10-12T10:00:13.000Z,56.01
2018-10-12T10:01:12.979Z,56.01
2018-10-12T10:02:12.968Z,55.79
2018-10-12T10:03:12.984Z,55.11
2018-10-12T10:04:12.944Z,55.81
2018-10-12T10:05:12.929Z,55.91
2018-10-12T10:06:12.934Z,55.71
2018-10-12T10:07:12.905Z,56.01
2018-10-12T10:08:13.105Z,55.71
2018-10-12T10:09:12.917Z,54.79
2018-10-12T10:10:12.875Z,55.29
2018-10-12T10:11:12.871Z,55.56
2018-10-12T10:12:12.872Z,54.27
2018-10-12T10:13:12.841Z,54.14
2018-10-12T10:14:12.827Z,54.44
2018-10-12T10:15:12.858Z,54.24
2018-10-12T10:16:12.802Z,54.34
2018-10-12T10:17:12.789Z,54.24
2018-10-12T10:18:12.809Z,54.81
2018-10-12T10:19:12.827Z,54.31
2018-10-12T10:20:12.753Z,52.92
2018-10-12T10:21:12.787Z,53.31
2018-10-12T10:22:12.738Z,52.72
2018-10-12T10:23:12.719Z,53.41
2018-10-12T10:24:12.784Z,53.59
2018-10-12T10:25:12.835Z,52.89
2018-10-12T10:26:12.689Z,53.29
2018-10-12T10:27:12.710Z,53.09
2018-10-12T10:28:12.669Z,53.59
2018-10-12T10:29:12.694Z,51.59
2018-10-12T10:30:12.667Z,52.49
2018-10-12T10:31:12.628Z,51.79
2018-10-12T10:32:12.630Z,53.19
2018-10-12T10:33:12.650Z,52.89
2018-10-12T10:34:12.595Z,51.89
2018-10-12T10:35:12.584Z,52.29
2018-10-12T10:36:12.580Z,52.69
2018-10-12T10:37:12.560Z,52.29
2018-10-12T10:38:12.552Z,52.72
2018-10-12T10:39:12.664Z,52.89
2018-10-12T10:40:12.529Z,53.19
2018-10-12T10:41:12.516Z,52.69
2018-10-12T10:42:12.519Z,52.97
2018-10-12T10:43:12.494Z,52.76
2018-10-12T10:44:12.485Z,52.39
2018-10-12T10:45:12.509Z,52.37
2018-10-12T10:46:12.487Z,52.79
2018-10-12T10:47:12.446Z,52.59
2018-10-12T10:48:12.462Z,52.67
2018-10-12T10:49:12.432Z,51.97
2018-10-12T10:50:12.419Z,52.47
2018-10-12T10:51:12.445Z,51.37
2018-10-12T10:52:12.389Z,52.24
2018-10-12T10:53:12.380Z,52.34
2018-10-12T10:54:12.364Z,51.65
2018-10-12T10:55:12.376Z,52.04
2018-10-12T10:56:12.343Z,51.75
2018-10-12T10:57:12.374Z,51.92
2018-10-12T10:58:12.331Z,52.04
2018-10-12T10:59:12.311Z,52.42
2018-10-12T11:00:12.302Z,51.65
2018-10-12T11:01:12.287Z,51.35
2018-10-12T11:02:12.311Z,51.72
2018-10-12T11:03:12.313Z,51.92
2018-10-12T11:04:12.256Z,51.82
2018-10-12T11:05:12.251Z,52.04
2018-10-12T11:06:12.282Z,51.75
2018-10-12T11:07:12.229Z,51.72
2018-10-12T11:08:12.209Z,51.62
2018-10-12T11:09:12.260Z,51.79
2018-10-12T11:10:12.187Z,51.89
2018-10-12T11:11:12.178Z,51.82
2018-10-12T11:12:12.236Z,52.19
2018-10-12T11:13:12.160Z,51.60
2018-10-12T11:14:12.143Z,50.31
2018-10-12T11:15:12.196Z,52.29
2018-10-12T11:16:12.120Z,51.60
2018-10-12T11:17:12.117Z,51.97
2018-10-12T11:18:12.101Z,50.78
2018-10-12T11:19:12.089Z,52.07
2018-10-12T11:20:12.078Z,51.67
2018-10-12T11:21:12.143Z,50.65
2018-10-12T11:22:12.057Z,50.16
2018-10-12T11:23:12.047Z,49.86
2018-10-12T11:24:12.038Z,50.35
2018-10-12T11:25:12.023Z,50.26
2018-10-12T11:26:12.078Z,50.45
2018-10-12T11:27:12.050Z,50.35
2018-10-12T11:28:11.997Z,49.36
2018-10-12T11:29:11.981Z,50.48
2018-10-12T11:30:11.968Z,50.16
2018-10-12T11:31:11.956Z,49.26
2018-10-12T11:32:11.948Z,49.14
2018-10-12T11:33:12.015Z,50.03
2018-10-12T11:34:11.932Z,50.03
2018-10-12T11:35:11.936Z,50.23
2018-10-12T11:36:11.952Z,50.23
2018-10-12T11:37:11.905Z,48.94
2018-10-12T11:38:11.899Z,49.56
2018-10-12T11:39:11.920Z,49.24
2018-10-12T11:40:11.861Z,50.13
2018-10-12T11:41:11.876Z,49.63
2018-10-12T11:42:12.670Z,49.54
2018-10-12T11:43:11.831Z,49.14
2018-10-12T11:44:11.835Z,49.24
2018-10-12T11:45:11.874Z,48.84
2018-10-12T11:46:11.797Z,48.42
2018-10-12T11:47:11.787Z,49.02
2018-10-12T11:48:11.774Z,47.63
2018-10-12T11:49:11.786Z,48.13
2018-10-12T11:50:11.750Z,48.50
2018-10-12T11:51:11.777Z,48.20
2018-10-12T11:52:11.823Z,47.61
2018-10-12T11:53:11.717Z,48.27
2018-10-12T11:54:11.709Z,47.38
2018-10-12T11:55:11.710Z,47.78
2018-10-12T11:56:11.682Z,47.58
2018-10-12T11:57:11.709Z,47.28
2018-10-12T11:58:11.664Z,47.09
2018-10-12T11:59:11.654Z,46.30
2018-10-12T12:00:11.649Z,45.70
2018-10-12T12:01:11.825Z,46.19
2018-10-12T12:02:11.645Z,46.47
2018-10-12T12:03:11.680Z,46.47
2018-10-12T12:04:11.611Z,46.07
2018-10-12T12:05:11.585Z,45.65
2018-10-12T12:06:11.575Z,45.93
2018-10-12T12:07:11.620Z,45.93
2018-10-12T12:08:11.565Z,45.49
2018-10-12T12:09:11.598Z,44.70
2018-10-12T12:10:11.534Z,45.09
2018-10-12T12:11:11.521Z,44.80
2018-10-12T12:12:11.521Z,45.29
2018-10-12T12:13:11.500Z,45.76
2018-10-12T12:14:11.494Z,45.54
2018-10-12T12:15:11.514Z,45.23
2018-10-12T12:16:11.471Z,44.20
2018-10-12T12:17:11.460Z,44.18
2018-10-12T12:18:11.460Z,43.46
2018-10-12T12:19:11.448Z,42.16
2018-10-12T12:20:11.428Z,42.16
2018-10-12T12:21:11.470Z,41.65
2018-10-12T12:22:11.403Z,42.24
2018-10-12T12:23:11.391Z,41.38
2018-10-12T12:24:11.446Z,42.79
2018-10-12T12:25:11.372Z,42.60
2018-10-12T12:26:11.359Z,43.73
2018-10-12T12:27:11.393Z,42.64
2018-10-12T12:28:11.338Z,43.45
2018-10-12T12:29:11.329Z,43.43
2018-10-12T12:30:11.338Z,43.11
2018-10-12T12:31:11.307Z,42.82
2018-10-12T12:32:11.296Z,43.29
2018-10-12T12:33:11.322Z,42.40
2018-10-12T12:34:11.307Z,42.40
2018-10-12T12:35:11.456Z,43.21
2018-10-12T12:36:11.551Z,43.09
2018-10-12T12:37:11.253Z,41.78
2018-10-12T12:38:11.236Z,41.30
2018-10-12T12:39:11.282Z,41.17
2018-10-12T12:40:11.211Z,40.39
2018-10-12T12:41:11.203Z,39.87
2018-10-12T12:42:11.189Z,39.66
2018-10-12T12:43:11.197Z,39.95
2018-10-12T12:44:11.168Z,40.01
2018-10-12T12:45:11.197Z,40.11
2018-10-12T12:46:11.153Z,40.70
2018-10-12T12:47:11.198Z,39.13
2018-10-12T12:48:12.246Z,39.74
2018-10-12T12:49:11.519Z,40.27
2018-10-12T12:50:11.112Z,40.45
2018-10-12T12:51:11.169Z,40.53
2018-10-12T12:52:11.088Z,40.92